createdAt,value
2023-03-27T00:01:14.965Z,10.01
2023-03-27T00:03:49.693Z,9.71
2023-03-27T00:06:18.998Z,9.28
2023-03-27T00:08:48.119Z,9.32
2023-03-27T00:11:15.758Z,9.39
2023-03-27T00:13:50.004Z,9.28
2023-03-27T00:16:19.091Z,9.17
2023-03-27T00:18:46.870Z,9.17
2023-03-27T00:21:14.331Z,9.03
2023-03-27T00:23:42.459Z,9.08
2023-03-27T00:26:10.047Z,9.20
2023-03-27T00:28:37.199Z,9.02
2023-03-27T00:31:04.403Z,8.56
2023-03-27T00:33:31.391Z,8.70
2023-03-27T00:35:58.451Z,8.75
2023-03-27T00:38:25.526Z,8.77
2023-03-27T00:40:55.536Z,8.71
2023-03-27T00:43:28.471Z,8.81
2023-03-27T00:46:06.019Z,8.83
2023-03-27T00:48:35.573Z,8.94
2023-03-27T00:51:03.937Z,8.91
2023-03-27T00:53:31.176Z,8.88
2023-03-27T00:56:03.977Z,8.81
2023-03-27T00:58:43.035Z,8.81
2023-03-27T01:01:13.780Z,8.84
2023-03-27T01:03:42.997Z,8.93
2023-03-27T01:06:14.018Z,8.80
2023-03-27T01:08:44.060Z,8.98
2023-03-27T01:11:31.288Z,8.87
2023-03-27T01:14:16.450Z,8.58
2023-03-27T01:17:25.580Z,8.66
2023-03-27T01:20:11.790Z,8.76
2023-03-27T01:22:57.144Z,8.68
2023-03-27T01:25:37.132Z,8.73
2023-03-27T01:28:16.863Z,8.87
2023-03-27T01:30:50.178Z,8.79
2023-03-27T01:33:26.632Z,8.91
2023-03-27T01:36:28.154Z,8.88
2023-03-27T01:39:25.556Z,8.88
2023-03-27T01:42:09.518Z,8.96
2023-03-27T01:44:51.433Z,8.88
2023-03-27T01:47:24.599Z,8.92
2023-03-27T01:50:21.556Z,8.96
2023-03-27T01:52:55.783Z,9.10
2023-03-27T01:55:28.344Z,8.91
2023-03-27T01:58:03.153Z,8.86
2023-03-27T02:00:51.635Z,8.82
2023-03-27T02:03:27.592Z,8.85
2023-03-27T02:06:03.415Z,8.60
2023-03-27T02:08:43.528Z,8.65
2023-03-27T02:11:34.555Z,8.78
2023-03-27T02:14:07.235Z,8.62
2023-03-27T02:16:42.661Z,8.70
2023-03-27T02:19:20.328Z,8.73
2023-03-27T02:21:49.991Z,8.74
2023-03-27T02:24:17.955Z,8.73
2023-03-27T02:26:46.212Z,8.70
2023-03-27T02:29:51.685Z,8.64
2023-03-27T02:33:01.038Z,8.51
2023-03-27T02:35:39.798Z,8.22
2023-03-27T02:38:14.884Z,8.29
2023-03-27T02:40:54.418Z,8.45
2023-03-27T02:43:56.215Z,8.27
2023-03-27T02:47:16.607Z,8.07
2023-03-27T02:49:52.916Z,8.31
2023-03-27T02:52:31.137Z,8.32
2023-03-27T02:55:10.792Z,8.41
2023-03-27T02:57:52.303Z,8.29
2023-03-27T03:00:28.271Z,8.36
2023-03-27T03:03:32.277Z,8.38
2023-03-27T03:06:29.732Z,8.22
2023-03-27T03:09:06.346Z,8.10
2023-03-27T03:11:38.386Z,8.11
2023-03-27T03:14:06.165Z,7.97
2023-03-27T03:16:34.049Z,7.98
2023-03-27T03:19:02.665Z,8.12
2023-03-27T03:21:29.988Z,8.07
2023-03-27T03:23:58.208Z,8.08
2023-03-27T03:26:27.267Z,8.21
2023-03-27T03:28:59.869Z,8.34
2023-03-27T03:31:43.286Z,8.32
2023-03-27T03:34:19.119Z,8.20
2023-03-27T03:36:50.082Z,8.28
2023-03-27T03:39:23.852Z,8.12
2023-03-27T03:41:51.169Z,7.85
2023-03-27T03:44:18.383Z,7.81
2023-03-27T03:46:45.426Z,7.80
2023-03-27T03:49:12.445Z,7.69
2023-03-27T03:51:39.327Z,7.56
2023-03-27T03:54:07.212Z,7.74
2023-03-27T03:56:34.835Z,7.83
2023-03-27T03:59:01.768Z,7.79
2023-03-27T04:01:30.049Z,7.71
2023-03-27T04:04:02.343Z,7.82
2023-03-27T04:06:45.619Z,7.70
2023-03-27T04:09:12.538Z,7.78
2023-03-27T04:11:56.219Z,7.99
2023-03-27T04:14:41.694Z,8.06
2023-03-27T04:17:28.725Z,7.92
2023-03-27T04:19:57.488Z,7.91
2023-03-27T04:22:26.364Z,7.89
2023-03-27T04:24:53.782Z,8.04
2023-03-27T04:27:22.066Z,8.02
2023-03-27T04:30:15.893Z,8.00
2023-03-27T04:33:23.085Z,8.00
2023-03-27T04:36:19.703Z,8.15
2023-03-27T04:39:17.363Z,8.07
2023-03-27T04:41:51.211Z,8.04
2023-03-27T04:44:18.789Z,8.09
2023-03-27T04:46:49.449Z,8.17
2023-03-27T04:49:20.523Z,8.06
2023-03-27T04:52:01.842Z,8.10
2023-03-27T04:54:31.952Z,8.20
2023-03-27T04:57:02.027Z,8.16
2023-03-27T04:59:32.335Z,8.25
2023-03-27T05:02:19.222Z,8.33
2023-03-27T05:05:03.009Z,8.48
2023-03-27T05:07:33.014Z,8.23
2023-03-27T05:10:02.605Z,8.36
2023-03-27T05:12:29.972Z,8.49
2023-03-27T05:15:04.005Z,8.65
2023-03-27T05:17:40.936Z,8.77
2023-03-27T05:20:14.989Z,8.81
2023-03-27T05:22:43.481Z,8.76
2023-03-27T05:25:39.567Z,8.96
2023-03-27T05:28:11.943Z,9.32
2023-03-27T05:30:38.929Z,9.66
2023-03-27T05:33:32.344Z,9.60
2023-03-27T05:35:59.281Z,9.73
2023-03-27T05:38:26.851Z,9.71
2023-03-27T05:41:25.957Z,9.62
2023-03-27T05:43:53.651Z,9.83
2023-03-27T05:46:21.831Z,10.25
2023-03-27T05:49:02.687Z,10.58
2023-03-27T05:51:31.648Z,10.71
2023-03-27T05:53:59.134Z,10.89
2023-03-27T05:56:35.286Z,11.18
2023-03-27T05:59:04.207Z,11.46
2023-03-27T06:01:35.870Z,11.87
2023-03-27T06:04:04.577Z,11.91
2023-03-27T06:06:51.541Z,12.16
2023-03-27T06:09:18.489Z,12.26
2023-03-27T06:12:02.952Z,12.60
2023-03-27T06:14:37.261Z,12.81
2023-03-27T06:17:20.827Z,13.22
2023-03-27T06:19:58.689Z,13.40
2023-03-27T06:22:26.854Z,13.57
2023-03-27T06:24:56.988Z,13.82
2023-03-27T06:27:24.194Z,14.27
2023-03-27T06:29:51.089Z,14.48
2023-03-27T06:32:19.459Z,14.64
2023-03-27T06:34:50.978Z,14.57
2023-03-27T06:37:51.361Z,14.41
2023-03-27T06:40:23.111Z,14.54
2023-03-27T06:42:59.935Z,14.29
2023-03-27T06:45:44.432Z,14.32
2023-03-27T06:48:40.608Z,14.59
2023-03-27T06:51:08.406Z,14.59
2023-03-27T06:53:37.884Z,14.62
2023-03-27T06:56:06.733Z,14.67
2023-03-27T06:58:53.493Z,15.09
2023-03-27T07:01:26.829Z,15.19
2023-03-27T07:04:13.670Z,15.16
2023-03-27T07:06:51.139Z,15.13
2023-03-27T07:09:18.811Z,15.35
2023-03-27T07:11:56.786Z,15.22
2023-03-27T07:14:24.379Z,15.31
2023-03-27T07:16:51.430Z,15.67
2023-03-27T07:19:19.137Z,15.60
2023-03-27T07:21:56.346Z,15.89
2023-03-27T07:24:24.485Z,15.65
2023-03-27T07:26:51.400Z,15.77
2023-03-27T07:29:23.138Z,15.98
2023-03-27T07:31:58.764Z,15.64
2023-03-27T07:34:37.194Z,15.54
2023-03-27T07:37:06.945Z,15.87
2023-03-27T07:39:35.412Z,16.09
2023-03-27T07:42:03.145Z,16.07
2023-03-27T07:44:46.486Z,15.93
2023-03-27T07:47:14.424Z,16.00
2023-03-27T07:49:42.185Z,16.14
2023-03-27T07:52:14.713Z,16.02
2023-03-27T07:54:52.241Z,16.11
2023-03-27T07:57:22.133Z,16.42
2023-03-27T07:59:52.719Z,16.47
2023-03-27T08:02:30.696Z,16.64
2023-03-27T08:04:58.172Z,16.97
2023-03-27T08:07:25.562Z,16.74
2023-03-27T08:09:57.586Z,16.80
2023-03-27T08:12:24.452Z,16.54
2023-03-27T08:14:57.619Z,16.67
2023-03-27T08:17:28.782Z,16.59
2023-03-27T08:19:56.242Z,16.95
2023-03-27T08:22:24.852Z,16.97
2023-03-27T08:25:10.496Z,17.40
2023-03-27T08:27:39.385Z,17.27
2023-03-27T08:30:07.133Z,17.30
2023-03-27T08:32:39.883Z,17.84
2023-03-27T08:35:09.780Z,17.79
2023-03-27T08:37:36.652Z,18.01
2023-03-27T08:40:26.986Z,18.26
2023-03-27T08:43:18.278Z,18.17
2023-03-27T08:45:53.573Z,17.80
2023-03-27T08:48:38.154Z,17.88
2023-03-27T08:51:14.838Z,18.48
2023-03-27T08:53:54.858Z,18.82
2023-03-27T08:56:27.212Z,18.78
2023-03-27T08:58:55.370Z,19.75
2023-03-27T09:01:36.792Z,19.84
2023-03-27T09:04:14.941Z,19.87
2023-03-27T09:06:55.955Z,19.41
2023-03-27T09:09:40.425Z,19.65
2023-03-27T09:12:19.702Z,19.99
2023-03-27T09:15:00.586Z,20.37
2023-03-27T09:17:33.593Z,20.32
2023-03-27T09:20:35.257Z,20.32
2023-03-27T09:23:13.953Z,20.50
2023-03-27T09:26:06.837Z,20.84
2023-03-27T09:29:25.700Z,21.54
2023-03-27T09:32:24.610Z,21.78
2023-03-27T09:34:51.486Z,21.63
2023-03-27T09:37:18.533Z,21.28
2023-03-27T09:39:52.412Z,21.42
2023-03-27T09:42:31.063Z,21.54
2023-03-27T09:45:02.940Z,21.45
2023-03-27T09:47:45.252Z,21.49
2023-03-27T09:50:49.303Z,21.33
2023-03-27T09:53:35.395Z,21.09
2023-03-27T09:56:17.837Z,20.79
2023-03-27T09:58:54.893Z,21.03
2023-03-27T10:01:34.542Z,21.22
2023-03-27T10:04:18.830Z,21.37
2023-03-27T10:07:02.451Z,21.43
2023-03-27T10:43:53.234Z,21.35
2023-03-27T10:46:26.041Z,21.04
2023-03-27T10:49:04.375Z,20.97
2023-03-27T10:51:55.762Z,20.68
2023-03-27T10:54:54.919Z,20.79
2023-03-27T10:57:29.209Z,20.88
2023-03-27T11:00:32.792Z,20.55
2023-03-27T11:03:22.479Z,20.87
2023-03-27T11:05:58.376Z,21.04
2023-03-27T11:08:44.909Z,20.94
2023-03-27T11:11:35.805Z,21.70
2023-03-27T11:14:10.170Z,21.80
2023-03-27T11:16:49.864Z,21.59
2023-03-27T11:19:43.770Z,22.02
2023-03-27T11:23:07.569Z,22.01
2023-03-27T11:26:16.397Z,21.73
2023-03-27T11:28:53.156Z,21.47
2023-03-27T11:31:40.676Z,21.68
2023-03-27T11:34:29.025Z,21.64
2023-03-27T11:37:42.155Z,21.38
2023-03-27T11:40:20.471Z,21.29
2023-03-27T11:42:52.375Z,21.25
2023-03-27T11:45:31.098Z,21.04
2023-03-27T11:48:01.347Z,20.84
2023-03-27T11:50:42.246Z,21.02
2023-03-27T11:53:09.205Z,20.79
2023-03-27T11:56:08.021Z,20.84
2023-03-27T11:58:56.721Z,21.02
2023-03-27T12:01:34.615Z,21.04
2023-03-27T12:04:20.132Z,20.60
2023-03-27T12:07:47.927Z,20.78
2023-03-27T12:10:17.615Z,20.94
2023-03-27T12:13:41.866Z,20.61
2023-03-27T12:16:36.279Z,20.69
2023-03-27T12:19:28.879Z,20.77
2023-03-27T12:22:36.934Z,20.67
2023-03-27T12:25:35.882Z,20.56
2023-03-27T12:28:53.162Z,20.66
2023-03-27T12:32:26.156Z,20.95
2023-03-27T12:34:59.822Z,21.34
2023-03-27T12:37:44.533Z,21.72
2023-03-27T12:40:35.022Z,22.38
2023-03-27T12:43:24.170Z,22.59
2023-03-27T12:46:30.590Z,22.83
2023-03-27T12:49:08.156Z,22.83
2023-03-27T12:52:02.855Z,22.78
2023-03-27T12:55:18.986Z,22.58
2023-03-27T12:57:55.428Z,22.01
2023-03-27T13:01:00.856Z,21.70
2023-03-27T13:04:16.688Z,21.90
2023-03-27T13:07:16.558Z,21.75
2023-03-27T13:10:24.123Z,22.29
2023-03-27T13:12:59.655Z,22.68
2023-03-27T13:15:32.344Z,22.89
2023-03-27T13:18:16.706Z,22.70
2023-03-27T13:21:22.874Z,22.71
2023-03-27T13:24:33.779Z,22.65
2023-03-27T13:27:19.669Z,22.50
2023-03-27T13:29:51.752Z,22.14
2023-03-27T13:32:28.476Z,21.87
2023-03-27T13:35:22.054Z,22.32
2023-03-27T13:37:49.117Z,22.23
2023-03-27T13:40:28.736Z,22.18
2023-03-27T13:43:22.670Z,22.50
2023-03-27T13:45:59.031Z,22.48
2023-03-27T13:48:55.419Z,22.19
2023-03-27T13:51:56.869Z,22.32
2023-03-27T13:54:40.203Z,22.35
2023-03-27T13:57:31.400Z,22.19
2023-03-27T14:00:33.291Z,22.18
2023-03-27T14:03:29.492Z,21.89
2023-03-27T14:06:03.956Z,21.90
2023-03-27T14:08:53.815Z,21.80
2023-03-27T14:11:45.678Z,21.94
2023-03-27T14:14:47.540Z,21.63
2023-03-27T14:17:41.678Z,21.66
2023-03-27T14:20:21.190Z,21.34
2023-03-27T14:22:53.611Z,21.26
2023-03-27T14:25:30.484Z,20.84
2023-03-27T14:28:29.209Z,20.86
2023-03-27T14:31:01.342Z,21.09
2023-03-27T14:34:01.791Z,21.29
2023-03-27T14:36:34.236Z,20.88
2023-03-27T14:39:16.159Z,21.03
2023-03-27T14:41:58.598Z,21.02
2023-03-27T14:44:31.011Z,21.17
2023-03-27T14:47:08.376Z,21.24
2023-03-27T14:49:50.394Z,21.18
2023-03-27T14:52:37.966Z,21.33
2023-03-27T14:55:35.852Z,21.20
2023-03-27T14:58:35.485Z,20.99
2023-03-27T15:01:05.235Z,20.99
2023-03-27T15:03:37.102Z,20.85
2023-03-27T15:06:13.527Z,20.74
2023-03-27T15:08:52.183Z,20.42
2023-03-27T15:11:39.162Z,20.20
2023-03-27T15:14:18.712Z,20.25
2023-03-27T15:16:53.139Z,20.14
2023-03-27T15:19:23.192Z,19.98
2023-03-27T15:22:05.888Z,19.82
2023-03-27T15:24:54.190Z,19.99
2023-03-27T15:27:32.288Z,19.88
2023-03-27T15:30:21.033Z,19.76
2023-03-27T15:32:52.452Z,19.69
2023-03-27T15:35:27.497Z,19.49
2023-03-27T15:37:54.585Z,19.45
2023-03-27T15:40:32.995Z,19.45
2023-03-27T15:43:04.817Z,19.42
2023-03-27T15:45:42.221Z,19.10
2023-03-27T15:48:19.776Z,18.85
2023-03-27T15:51:01.326Z,18.67
2023-03-27T15:53:43.332Z,18.43
2023-03-27T15:56:13.108Z,18.44
2023-03-27T15:59:02.849Z,18.48
2023-03-27T16:01:33.572Z,18.44
2023-03-27T16:04:06.623Z,18.42
2023-03-27T16:06:38.671Z,18.45
2023-03-27T16:09:19.001Z,18.08
2023-03-27T16:11:47.226Z,17.82
2023-03-27T16:14:32.193Z,17.60
2023-03-27T16:17:19.805Z,17.68
2023-03-27T16:19:56.688Z,17.68
2023-03-27T16:22:32.114Z,17.88
2023-03-27T16:25:00.914Z,18.06
2023-03-27T16:27:34.067Z,17.96
2023-03-27T16:30:01.014Z,17.41
2023-03-27T16:32:27.832Z,17.14
2023-03-27T16:34:54.701Z,16.90
2023-03-27T16:37:23.882Z,16.87
2023-03-27T16:39:50.941Z,16.77
2023-03-27T16:42:22.681Z,16.55
2023-03-27T16:44:52.510Z,16.36
2023-03-27T16:47:20.562Z,16.28
2023-03-27T16:49:56.261Z,16.18
2023-03-27T16:52:34.727Z,16.09
2023-03-27T16:55:03.964Z,16.13
2023-03-27T16:57:32.753Z,15.80
2023-03-27T16:59:59.548Z,16.06
2023-03-27T17:02:26.786Z,16.10
2023-03-27T17:04:53.864Z,15.89
2023-03-27T17:07:20.719Z,16.02
2023-03-27T17:09:47.633Z,16.17
2023-03-27T17:12:14.504Z,15.70
2023-03-27T17:14:41.490Z,15.49
2023-03-27T17:17:08.372Z,15.20
2023-03-27T17:19:35.296Z,15.19
2023-03-27T17:22:02.344Z,15.23
2023-03-27T17:24:29.152Z,15.42
2023-03-27T17:26:55.971Z,15.54
2023-03-27T17:29:22.832Z,15.47
2023-03-27T17:31:51.960Z,15.22
2023-03-27T17:34:19.874Z,15.48
2023-03-27T17:36:54.018Z,15.23
2023-03-27T17:39:22.113Z,15.17
2023-03-27T17:41:49.300Z,15.07
2023-03-27T17:44:16.148Z,14.89
2023-03-27T17:46:43.294Z,14.98
2023-03-27T17:49:10.455Z,14.90
2023-03-27T17:51:37.854Z,14.91
2023-03-27T17:54:05.024Z,14.91
2023-03-27T17:56:31.978Z,14.87
2023-03-27T17:59:00.207Z,14.81
2023-03-27T18:01:27.139Z,14.77
2023-03-27T18:03:55.387Z,14.77
2023-03-27T18:06:24.149Z,14.72
2023-03-27T18:08:50.973Z,14.73
2023-03-27T18:11:17.907Z,14.66
2023-03-27T18:13:45.079Z,14.57
2023-03-27T18:16:12.229Z,14.60
2023-03-27T18:18:39.675Z,14.76
2023-03-27T18:21:08.679Z,14.64
2023-03-27T18:23:35.650Z,14.48
2023-03-27T18:26:06.993Z,14.48
2023-03-27T18:28:34.595Z,14.57
2023-03-27T18:31:04.460Z,14.67
2023-03-27T18:33:32.721Z,14.45
2023-03-27T18:35:59.851Z,14.37
2023-03-27T18:38:28.588Z,14.14
2023-03-27T18:40:57.005Z,14.13
2023-03-27T18:43:24.398Z,14.11
2023-03-27T18:46:04.329Z,13.91
2023-03-27T18:48:31.648Z,13.82
2023-03-27T18:51:01.803Z,13.76
2023-03-27T18:53:29.306Z,13.91
2023-03-27T18:55:58.365Z,13.93
2023-03-27T18:58:29.258Z,14.03
2023-03-27T19:00:56.972Z,13.86
2023-03-27T19:03:26.195Z,13.88
2023-03-27T19:05:53.715Z,14.00
2023-03-27T19:08:21.723Z,14.15
2023-03-27T19:10:49.399Z,14.03
2023-03-27T19:13:42.450Z,14.06
2023-03-27T19:16:16.437Z,13.86
2023-03-27T19:18:55.433Z,13.90
2023-03-27T19:21:41.148Z,14.03
2023-03-27T19:24:17.078Z,13.97
2023-03-27T19:26:45.904Z,13.96
2023-03-27T19:29:12.805Z,13.72
2023-03-27T19:31:39.694Z,13.73
2023-03-27T19:34:06.986Z,13.74
2023-03-27T19:36:33.869Z,13.55
2023-03-27T19:39:00.892Z,13.65
2023-03-27T19:41:27.755Z,13.72
2023-03-27T19:43:54.579Z,13.72
2023-03-27T19:46:23.258Z,13.60
2023-03-27T19:48:53.122Z,13.54
2023-03-27T19:51:43.123Z,13.57
2023-03-27T19:54:12.213Z,13.64
2023-03-27T19:56:39.397Z,13.46
2023-03-27T19:59:06.930Z,13.50
2023-03-27T20:01:34.020Z,13.39
2023-03-27T20:04:01.114Z,13.21
2023-03-27T20:06:28.950Z,13.55
2023-03-27T20:09:01.084Z,14.24
2023-03-27T20:11:28.517Z,14.66
2023-03-27T20:13:56.953Z,14.37
2023-03-27T20:16:27.916Z,14.71
2023-03-27T20:19:04.095Z,14.60
2023-03-27T20:21:40.332Z,14.27
2023-03-27T20:24:13.343Z,14.11
2023-03-27T20:26:48.223Z,14.22
2023-03-27T20:29:23.090Z,14.28
2023-03-27T20:31:50.467Z,14.07
2023-03-27T20:34:19.754Z,13.80
2023-03-27T20:36:47.501Z,14.13
2023-03-27T20:39:29.629Z,13.81
2023-03-27T20:41:59.274Z,13.79
2023-03-27T20:44:35.268Z,13.71
2023-03-27T20:47:12.477Z,13.69
2023-03-27T20:49:43.682Z,13.60
2023-03-27T20:52:13.574Z,13.82
2023-03-27T20:54:40.712Z,13.80
2023-03-27T20:57:11.234Z,13.97
2023-03-27T20:59:38.387Z,14.00
2023-03-27T21:02:05.735Z,13.79
2023-03-27T21:04:32.652Z,13.68
2023-03-27T21:06:59.779Z,13.70
2023-03-27T21:09:27.788Z,13.84
2023-03-27T21:11:55.726Z,14.04
2023-03-27T21:14:22.980Z,13.88
2023-03-27T21:16:50.512Z,13.72
2023-03-27T21:19:19.836Z,13.71
2023-03-27T21:21:46.836Z,13.73
2023-03-27T21:24:13.773Z,13.54
2023-03-27T21:26:41.512Z,13.70
2023-03-27T21:29:11.570Z,13.46
2023-03-27T21:31:39.405Z,13.42
2023-03-27T21:34:06.501Z,13.40
2023-03-27T21:36:33.555Z,13.45
2023-03-27T21:39:00.625Z,13.52
2023-03-27T21:41:27.651Z,13.55
2023-03-27T21:43:54.462Z,13.70
2023-03-27T21:46:21.366Z,13.55
2023-03-27T21:48:49.816Z,13.48
2023-03-27T21:51:16.805Z,13.44
2023-03-27T21:53:43.729Z,13.46
2023-03-27T21:56:10.572Z,13.30
2023-03-27T21:58:37.661Z,13.52
2023-03-27T22:01:04.942Z,13.82
2023-03-27T22:03:31.952Z,13.95
2023-03-27T22:06:11.818Z,13.87
2023-03-27T22:08:41.166Z,14.01
2023-03-27T22:11:08.431Z,13.93
2023-03-27T22:13:37.245Z,13.91
2023-03-27T22:16:09.792Z,14.03
2023-03-27T22:18:36.698Z,14.14
2023-03-27T22:21:32.934Z,14.23
2023-03-27T22:23:59.943Z,14.06
2023-03-27T22:26:30.144Z,14.04
2023-03-27T22:28:57.164Z,13.96
2023-03-27T22:31:25.733Z,13.82
2023-03-27T22:33:53.015Z,13.83
2023-03-27T22:36:19.883Z,13.88
2023-03-27T22:38:46.896Z,13.91
2023-03-27T22:41:14.824Z,14.06
2023-03-27T22:43:42.012Z,14.17
2023-03-27T22:46:15.072Z,14.13
2023-03-27T22:48:42.585Z,13.99
2023-03-27T22:51:11.198Z,13.80
2023-03-27T22:53:38.367Z,13.80
2023-03-27T22:56:06.758Z,13.60
2023-03-27T22:58:34.129Z,13.61
2023-03-27T23:01:03.820Z,13.59
2023-03-27T23:03:30.838Z,13.69
2023-03-27T23:05:57.928Z,13.65
2023-03-27T23:08:29.678Z,13.59
2023-03-27T23:11:05.078Z,13.25
2023-03-27T23:13:34.782Z,13.62
2023-03-27T23:16:02.108Z,13.52
2023-03-27T23:18:29.227Z,13.52
2023-03-27T23:21:01.658Z,13.49
2023-03-27T23:23:30.323Z,13.75
2023-03-27T23:25:58.269Z,13.70
2023-03-27T23:28:26.845Z,13.63
2023-03-27T23:30:55.632Z,13.40
2023-03-27T23:33:25.238Z,13.46
2023-03-27T23:36:02.586Z,13.26
2023-03-27T23:38:29.676Z,13.11
2023-03-27T23:40:57.944Z,13.32
2023-03-27T23:43:26.215Z,13.00
2023-03-27T23:45:53.280Z,12.69
2023-03-27T23:48:20.093Z,12.49
2023-03-27T23:50:47.122Z,12.36
2023-03-27T23:53:14.008Z,12.23
2023-03-27T23:55:41.475Z,12.10
2023-03-27T23:58:08.481Z,12.10
